Time;durP1;ratioP1;P1;durP2;ratioP2;P2;SDS_P1;SDS_P2;PMS_P1;PMS_P2;Temp;Humidity;BMP_temperature;BMP_pressure;BME280_temperature;BME280_humidity;BME280_pressure;Samples;Min_cycle;Max_cycle;Signal;HPM_P1;HPM_P2
2022/11/10 00:00:05;;;;;;;6.03;3.00;;;17.80;69.50;;;;;;5089040;28;20789;-59
2022/11/10 00:02:31;;;;;;;7.37;4.47;;;17.80;69.80;;;;;;5083581;28;20196;-59
2022/11/10 00:04:57;;;;;;;8.23;3.70;;;17.80;69.80;;;;;;5088921;28;20440;-59
2022/11/10 00:07:27;;;;;;;5.70;4.20;;;17.80;69.90;;;;;;5090825;28;20550;-59
2022/11/10 00:09:53;;;;;;;6.30;4.00;;;17.80;69.90;;;;;;5090024;28;20223;-59
2022/11/10 00:12:20;;;;;;;8.47;5.00;;;17.80;69.90;;;;;;5095920;28;20463;-59
2022/11/10 00:17:41;;;;;;;7.73;5.53;;;17.80;70.10;;;;;;5064514;28;20447;-59
2022/11/10 00:20:08;;;;;;;4.50;4.10;;;17.80;70.20;;;;;;5089159;28;20445;-59
2022/11/10 00:22:35;;;;;;;7.90;4.80;;;17.70;69.90;;;;;;5091974;28;20186;-59
2022/11/10 00:25:00;;;;;;;6.13;4.00;;;17.70;70.00;;;;;;5091445;28;20469;-59
2022/11/10 00:27:26;;;;;;;4.50;3.63;;;17.70;69.80;;;;;;5098112;28;20429;-59
2022/11/10 00:29:52;;;;;;;6.97;4.30;;;17.70;69.90;;;;;;5092345;28;20229;-59
2022/11/10 00:32:17;;;;;;;7.50;4.70;;;17.70;69.80;;;;;;5095529;28;20194;-59
2022/11/10 00:34:43;;;;;;;6.90;4.77;;;17.70;69.80;;;;;;5098427;28;20260;-59
2022/11/10 00:37:08;;;;;;;5.27;3.40;;;17.70;69.70;;;;;;5091227;28;20190;-59
2022/11/10 00:39:34;;;;;;;4.50;3.00;;;17.70;69.70;;;;;;5087526;28;20201;-59
2022/11/10 00:41:59;;;;;;;5.07;2.57;;;17.60;69.40;;;;;;5085265;28;20253;-59
2022/11/10 00:44:25;;;;;;;3.97;2.63;;;17.60;69.30;;;;;;5089509;28;20203;-59
2022/11/10 00:46:51;;;;;;;2.23;2.00;;;17.60;69.10;;;;;;5088604;28;20256;-59
2022/11/10 00:49:16;;;;;;;4.03;2.70;;;17.70;69.10;;;;;;5086432;28;20242;-59
2022/11/10 00:51:42;;;;;;;3.50;2.40;;;17.70;68.90;;;;;;5084025;28;20188;-59
2022/11/10 00:54:07;;;;;;;2.93;2.60;;;17.70;68.70;;;;;;5086356;28;20207;-59
2022/11/10 00:56:33;;;;;;;3.10;2.40;;;17.70;68.70;;;;;;5091046;28;20183;-59
2022/11/10 00:58:59;;;;;;;5.43;3.40;;;17.70;68.90;;;;;;5089545;28;20195;-59
2022/11/10 01:01:25;;;;;;;4.10;2.70;;;17.60;68.90;;;;;;5087944;28;20195;-59
2022/11/10 01:03:52;;;;;;;6.13;2.67;;;17.70;68.80;;;;;;5086049;28;20194;-59
2022/11/10 01:06:19;;;;;;;3.80;2.20;;;17.70;68.70;;;;;;5090181;28;20433;-59
2022/11/10 01:08:46;;;;;;;4.67;2.50;;;17.70;68.80;;;;;;5088385;28;20952;-59
2022/11/10 01:11:15;;;;;;;3.03;2.20;;;17.60;68.80;;;;;;5090806;28;20444;-59
2022/11/10 01:13:43;;;;;;;2.67;2.10;;;17.60;68.80;;;;;;5090060;28;20451;-60
2022/11/10 01:16:23;;;;;;;4.60;2.03;;;17.60;68.80;;;;;;5092214;28;20428;-59
2022/11/10 01:18:55;;;;;;;3.80;2.47;;;17.60;68.40;;;;;;5090330;28;20449;-59
2022/11/10 01:21:21;;;;;;;2.73;2.10;;;17.50;68.20;;;;;;5088906;28;20437;-59
2022/11/10 01:23:47;;;;;;;4.13;2.50;;;17.50;68.30;;;;;;5086253;28;20469;-59
2022/11/10 01:26:14;;;;;;;3.70;2.27;;;17.50;68.10;;;;;;5089574;28;20441;-59
2022/11/10 01:28:39;;;;;;;5.20;2.57;;;17.40;68.30;;;;;;5088446;28;20238;-59
2022/11/10 01:31:07;;;;;;;3.57;2.33;;;17.40;68.20;;;;;;5090651;28;20425;-59
2022/11/10 01:33:35;;;;;;;5.40;2.57;;;17.30;68.00;;;;;;5086673;28;20674;-59
2022/11/10 01:36:00;;;;;;;4.40;2.17;;;17.30;67.90;;;;;;5088822;28;20469;-59
2022/11/10 01:38:28;;;;;;;6.57;2.67;;;17.40;67.60;;;;;;5089637;28;20480;-59
2022/11/10 01:40:55;;;;;;;2.20;2.00;;;17.50;67.50;;;;;;5091805;28;20278;-59
2022/11/10 01:43:20;;;;;;;3.80;2.30;;;17.50;68.20;;;;;;5088844;28;20444;-59
2022/11/10 01:45:52;;;;;;;4.80;2.93;;;17.50;67.20;;;;;;5086705;28;20437;-59
2022/11/10 01:48:32;;;;;;;8.67;3.00;;;17.60;67.00;;;;;;5087695;28;20221;-59
2022/11/10 01:51:03;;;;;;;3.17;1.90;;;17.60;66.70;;;;;;5087810;28;20440;-59
2022/11/10 01:53:33;;;;;;;6.27;2.33;;;17.50;66.70;;;;;;5082897;28;20464;-59
2022/11/10 01:55:59;;;;;;;5.03;2.77;;;17.50;66.80;;;;;;5085817;28;20438;-59
2022/11/10 01:58:32;;;;;;;5.60;2.60;;;17.50;66.80;;;;;;5088515;28;20445;-59
2022/11/10 02:00:58;;;;;;;4.93;2.60;;;17.50;66.70;;;;;;5090422;28;20199;-60
2022/11/10 02:03:42;;;;;;;4.60;3.33;;;17.50;66.60;;;;;;5086103;28;20471;-59
2022/11/10 02:06:08;;;;;;;2.70;2.20;;;17.50;66.70;;;;;;5082932;28;20561;-59
2022/11/10 02:08:35;;;;;;;5.67;2.23;;;17.40;66.50;;;;;;5083226;28;21348;-59
2022/11/10 02:11:00;;;;;;;4.20;2.00;;;17.40;66.20;;;;;;5094948;28;20445;-59
2022/11/10 02:13:26;;;;;;;6.33;1.90;;;17.40;66.00;;;;;;5087138;28;20453;-59
2022/11/10 02:15:51;;;;;;;7.93;2.40;;;17.40;65.80;;;;;;5086137;28;20189;-59
2022/11/10 02:18:17;;;;;;;3.00;2.30;;;17.40;65.80;;;;;;5084312;28;20190;-59
2022/11/10 02:20:44;;;;;;;7.00;3.00;;;17.40;65.50;;;;;;5087474;28;20199;-59
2022/11/10 02:23:28;;;;;;;7.47;2.23;;;17.30;65.30;;;;;;5085938;28;20599;-59
2022/11/10 02:25:54;;;;;;;4.20;2.10;;;17.30;65.40;;;;;;5088044;28;20488;-59
2022/11/10 02:28:20;;;;;;;4.97;2.47;;;17.20;65.60;;;;;;5090171;28;20471;-59
2022/11/10 02:30:46;;;;;;;5.50;2.37;;;17.20;65.50;;;;;;5089591;28;20445;-59
2022/11/10 02:33:11;;;;;;;8.87;2.73;;;17.20;65.50;;;;;;5083998;28;20195;-59
2022/11/10 02:35:37;;;;;;;5.87;4.03;;;17.20;65.50;;;;;;5087083;28;20198;-59
2022/11/10 02:38:02;;;;;;;3.20;2.07;;;17.20;65.80;;;;;;5090184;28;20296;-59
2022/11/10 02:40:28;;;;;;;3.60;1.97;;;17.20;65.50;;;;;;5091003;28;20277;-59
2022/11/10 02:42:54;;;;;;;14.00;2.60;;;17.20;65.40;;;;;;5088599;28;20191;-59
2022/11/10 02:45:20;;;;;;;6.13;2.10;;;17.10;65.20;;;;;;5085553;28;20225;-59
2022/11/10 02:47:45;;;;;;;3.57;2.30;;;17.10;65.30;;;;;;5085621;28;20467;-59
2022/11/10 02:50:11;;;;;;;4.20;2.50;;;17.10;65.40;;;;;;5083839;28;21133;-59
2022/11/10 02:52:36;;;;;;;3.63;2.00;;;17.00;65.50;;;;;;5082661;28;20252;-59
2022/11/10 02:55:02;;;;;;;4.23;2.30;;;17.00;65.70;;;;;;5084864;28;20200;-59
2022/11/10 02:57:28;;;;;;;2.93;2.20;;;17.00;65.90;;;;;;5095879;28;20183;-59
2022/11/10 02:59:53;;;;;;;3.23;1.90;;;16.90;66.20;;;;;;5087808;28;20445;-58
2022/11/10 03:02:19;;;;;;;6.30;2.27;;;16.90;66.50;;;;;;5083813;28;20254;-58
2022/11/10 03:04:45;;;;;;;4.10;2.20;;;16.90;66.90;;;;;;5087279;28;20190;-59
2022/11/10 03:07:10;;;;;;;5.80;2.30;;;16.90;67.10;;;;;;5089014;28;20199;-59
2022/11/10 03:09:36;;;;;;;4.30;2.70;;;16.90;67.00;;;;;;5093905;28;20226;-59
2022/11/10 03:12:01;;;;;;;2.97;2.10;;;16.90;66.80;;;;;;5099677;28;20184;-59
2022/11/10 03:14:27;;;;;;;2.90;2.13;;;16.90;66.80;;;;;;5092149;28;20187;-59
2022/11/10 03:16:52;;;;;;;14.43;2.73;;;16.90;66.80;;;;;;5090863;28;20227;-59
2022/11/10 03:19:18;;;;;;;4.87;2.90;;;16.80;66.60;;;;;;5092905;28;20287;-59
2022/11/10 03:21:44;;;;;;;3.17;2.23;;;16.90;66.50;;;;;;5092001;28;20256;-58
2022/11/10 03:24:09;;;;;;;3.63;2.30;;;16.80;66.60;;;;;;5086418;28;20280;-59
2022/11/10 03:26:35;;;;;;;4.23;2.20;;;16.80;66.60;;;;;;5093520;28;20223;-59
2022/11/10 03:29:00;;;;;;;7.77;3.17;;;16.80;66.50;;;;;;5092346;28;20221;-59
2022/11/10 03:31:26;;;;;;;4.53;2.57;;;16.80;66.60;;;;;;5093942;28;20653;-60
2022/11/10 03:33:52;;;;;;;6.37;2.67;;;16.80;66.90;;;;;;5091528;28;20655;-59
2022/11/10 03:36:17;;;;;;;6.97;2.33;;;16.70;67.00;;;;;;5091251;28;20557;-59
2022/11/10 03:38:43;;;;;;;6.70;2.70;;;16.70;67.10;;;;;;5092214;28;20191;-59
2022/11/10 03:41:08;;;;;;;4.40;2.33;;;16.70;67.30;;;;;;5091858;28;20199;-59
2022/11/10 03:43:34;;;;;;;5.73;2.63;;;16.70;67.40;;;;;;5088460;28;20198;-59
2022/11/10 03:46:00;;;;;;;4.83;2.47;;;16.70;67.50;;;;;;5092173;28;20219;-59
2022/11/10 03:48:25;;;;;;;6.03;2.93;;;16.70;67.40;;;;;;5092610;28;20229;-59
2022/11/10 03:50:51;;;;;;;7.60;2.57;;;16.70;67.20;;;;;;5091883;28;21004;-59
2022/11/10 03:53:16;;;;;;;9.13;3.10;;;16.80;67.20;;;;;;5088900;28;20195;-59
2022/11/10 03:55:42;;;;;;;5.77;2.70;;;16.80;67.10;;;;;;5092812;28;20240;-59
2022/11/10 03:58:07;;;;;;;5.00;2.67;;;16.70;67.00;;;;;;5090898;28;20634;-59
2022/11/10 04:00:33;;;;;;;4.50;2.60;;;16.70;67.10;;;;;;5090562;28;20611;-59
2022/11/10 04:02:58;;;;;;;3.80;3.27;;;16.70;67.00;;;;;;5091332;28;20693;-59
2022/11/10 04:10:58;;;;;;;4.70;2.80;;;16.60;67.20;;;;;;5089896;28;20464;-59
2022/11/10 04:16:08;;;;;;;9.93;3.47;;;16.60;67.40;;;;;;5086440;28;22137;-59
2022/11/10 04:18:33;;;;;;;2.63;2.40;;;16.60;67.40;;;;;;5093968;28;20433;-59
2022/11/10 04:21:00;;;;;;;5.30;3.13;;;16.60;67.40;;;;;;5086576;28;20553;-59
2022/11/10 04:23:30;;;;;;;7.43;2.60;;;16.60;67.50;;;;;;5087831;28;20249;-59
2022/11/10 04:28:46;;;;;;;5.17;2.83;;;16.60;67.30;;;;;;5088110;28;20515;-59
2022/11/10 04:31:13;;;;;;;6.30;2.93;;;16.60;67.40;;;;;;5088803;28;20539;-59
2022/11/10 04:33:40;;;;;;;4.70;3.10;;;16.60;67.50;;;;;;5092790;28;20441;-59
2022/11/10 04:36:06;;;;;;;5.70;3.20;;;16.60;67.60;;;;;;5088056;28;21274;-59
2022/11/10 04:38:32;;;;;;;5.57;3.10;;;16.60;67.50;;;;;;5085533;28;20449;-58
2022/11/10 04:40:58;;;;;;;3.37;2.57;;;16.60;67.50;;;;;;5083997;28;20561;-59
2022/11/10 04:43:24;;;;;;;5.73;2.73;;;16.60;67.50;;;;;;5086355;28;20555;-59
2022/11/10 04:45:49;;;;;;;5.03;2.60;;;16.60;67.50;;;;;;5083851;28;20206;-59
2022/11/10 04:48:15;;;;;;;5.70;2.90;;;16.60;67.30;;;;;;5086934;28;20218;-59
2022/11/10 04:50:40;;;;;;;3.23;2.50;;;16.60;67.20;;;;;;5087680;28;20187;-60
2022/11/10 04:53:06;;;;;;;6.50;2.47;;;16.60;67.30;;;;;;5088864;28;20205;-59
2022/11/10 04:55:31;;;;;;;4.60;2.90;;;16.60;67.20;;;;;;5091655;28;20251;-58
2022/11/10 04:57:57;;;;;;;5.27;3.20;;;16.60;67.00;;;;;;5089116;28;20225;-59
2022/11/10 05:00:23;;;;;;;6.57;2.90;;;16.60;66.80;;;;;;5087623;28;20199;-58
2022/11/10 05:02:48;;;;;;;3.93;3.20;;;16.60;66.80;;;;;;5088929;28;20187;-59
2022/11/10 05:05:14;;;;;;;7.23;3.50;;;16.60;66.90;;;;;;5090095;28;20200;-58
2022/11/10 05:07:40;;;;;;;6.00;3.13;;;16.50;66.60;;;;;;5090085;28;20545;-59
2022/11/10 05:10:06;;;;;;;3.37;3.07;;;16.50;66.60;;;;;;5090226;28;20245;-59
2022/11/10 05:12:31;;;;;;;5.50;2.97;;;16.50;66.40;;;;;;5084532;28;20203;-59
2022/11/10 05:14:57;;;;;;;4.73;2.73;;;16.50;66.10;;;;;;5090804;28;20473;-59
2022/11/10 05:17:22;;;;;;;3.57;3.10;;;16.50;66.00;;;;;;5087151;28;20490;-59
2022/11/10 05:19:48;;;;;;;4.73;3.53;;;16.40;65.70;;;;;;5086892;28;20206;-58
2022/11/10 05:22:14;;;;;;;4.57;3.10;;;16.40;65.60;;;;;;5087947;28;20190;-58
2022/11/10 05:24:39;;;;;;;5.60;2.97;;;16.40;65.40;;;;;;5085425;28;20227;-58
2022/11/10 05:27:07;;;;;;;4.33;3.10;;;16.30;65.00;;;;;;5092140;28;20488;-58
2022/11/10 05:29:32;;;;;;;5.70;3.13;;;16.30;64.80;;;;;;5088845;28;20234;-59
2022/11/10 05:31:58;;;;;;;5.33;3.13;;;16.30;64.90;;;;;;5094376;28;20429;-59
2022/11/10 05:34:24;;;;;;;6.07;3.40;;;16.30;64.90;;;;;;5085231;28;20532;-58
2022/11/10 05:36:49;;;;;;;4.80;3.53;;;16.20;64.80;;;;;;5089376;28;20202;-58
2022/11/10 05:39:15;;;;;;;6.43;2.57;;;16.20;64.80;;;;;;5086746;28;20878;-59
2022/11/10 05:41:40;;;;;;;6.13;2.93;;;16.20;65.10;;;;;;5086843;28;20285;-58
2022/11/10 05:44:06;;;;;;;4.27;3.40;;;16.20;64.90;;;;;;5085595;28;20219;-59
2022/11/10 05:46:32;;;;;;;3.27;2.97;;;16.20;64.60;;;;;;5086160;28;20274;-59
2022/11/10 05:48:57;;;;;;;6.10;3.30;;;16.10;65.30;;;;;;5085925;28;20704;-59
2022/11/10 05:51:23;;;;;;;6.50;2.83;;;16.10;64.20;;;;;;5084577;28;20199;-59
2022/11/10 05:53:48;;;;;;;3.40;3.10;;;16.10;64.00;;;;;;5086934;28;20194;-58
2022/11/10 05:56:14;;;;;;;4.00;2.80;;;16.10;63.80;;;;;;5087542;28;20195;-58
2022/11/10 05:58:39;;;;;;;4.13;3.03;;;16.10;63.90;;;;;;5086938;28;20624;-58
2022/11/10 06:01:05;;;;;;;6.33;4.20;;;16.00;63.80;;;;;;5086984;28;20203;-59
2022/11/10 06:03:31;;;;;;;5.40;3.60;;;15.90;64.10;;;;;;5092128;28;20199;-59
2022/11/10 06:05:56;;;;;;;5.73;3.07;;;15.90;64.50;;;;;;5086468;28;20217;-59
2022/11/10 06:08:23;;;;;;;3.40;2.70;;;15.90;64.60;;;;;;5088981;28;21054;-58
2022/11/10 06:10:49;;;;;;;9.57;3.37;;;15.90;64.50;;;;;;5089176;28;20216;-58
2022/11/10 06:13:14;;;;;;;8.83;4.37;;;15.80;64.50;;;;;;5085288;28;20520;-59
2022/11/10 06:15:40;;;;;;;4.87;3.60;;;15.70;64.90;;;;;;5085347;28;20192;-59
2022/11/10 06:18:05;;;;;;;9.30;4.60;;;15.70;64.80;;;;;;5082552;28;20196;-59
2022/11/10 06:20:31;;;;;;;5.00;4.20;;;15.70;64.80;;;;;;5087758;28;20674;-58
2022/11/10 06:23:09;;;;;;;8.50;4.33;;;15.70;64.70;;;;;;5094610;28;20207;-59
2022/11/10 06:25:37;;;;;;;8.10;4.30;;;15.70;64.80;;;;;;5089664;28;20317;-60
2022/11/10 06:28:03;;;;;;;6.60;4.53;;;15.70;64.80;;;;;;5082120;28;20437;-60
2022/11/10 06:30:31;;;;;;;5.80;4.30;;;15.80;66.00;;;;;;5082335;28;20437;-60
2022/11/10 06:32:57;;;;;;;6.60;4.17;;;15.90;65.60;;;;;;5087788;28;20437;-60
2022/11/10 06:35:23;;;;;;;4.40;3.83;;;16.00;65.80;;;;;;5086724;28;20429;-60
2022/11/10 06:38:00;;;;;;;5.60;3.60;;;16.00;66.00;;;;;;5083737;28;20595;-60
2022/11/10 06:40:26;;;;;;;6.07;3.47;;;16.10;65.40;;;;;;5078270;28;20445;-60
2022/11/10 06:42:52;;;;;;;6.80;3.50;;;16.10;64.70;;;;;;5093195;28;20552;-60
2022/11/10 06:45:17;;;;;;;5.50;3.47;;;16.10;64.00;;;;;;5094190;28;20520;-60
2022/11/10 06:47:43;;;;;;;6.03;3.00;;;16.10;63.40;;;;;;5092663;28;20203;-60
2022/11/10 06:50:09;;;;;;;4.03;3.50;;;16.10;63.10;;;;;;5089356;28;20700;-61
2022/11/10 06:52:34;;;;;;;4.43;3.47;;;16.20;63.80;;;;;;5091707;28;20252;-60
2022/11/10 06:55:00;;;;;;;3.90;3.60;;;16.40;63.60;;;;;;5091118;28;20195;-60
2022/11/10 06:57:26;;;;;;;5.97;3.50;;;16.60;62.60;;;;;;5091908;28;20437;-60
2022/11/10 06:59:52;;;;;;;5.00;3.50;;;16.80;62.70;;;;;;5092385;28;20748;-60
2022/11/10 07:02:17;;;;;;;6.27;3.93;;;16.90;61.20;;;;;;5097311;28;20662;-60
2022/11/10 07:04:43;;;;;;;6.93;3.20;;;17.20;61.90;;;;;;5091589;28;20203;-60
2022/11/10 07:07:10;;;;;;;6.37;3.10;;;17.30;60.90;;;;;;5091928;28;20199;-60
2022/11/10 07:09:36;;;;;;;9.13;2.90;;;17.70;59.80;;;;;;5092416;28;20227;-60
2022/11/10 07:12:03;;;;;;;4.07;2.43;;;17.90;59.30;;;;;;5092440;28;20448;-60
2022/11/10 07:14:29;;;;;;;3.80;2.80;;;18.10;58.70;;;;;;5093233;28;20441;-60
2022/11/10 07:16:54;;;;;;;4.53;2.77;;;18.30;57.80;;;;;;5092020;28;20440;-60
2022/11/10 07:19:20;;;;;;;4.50;2.60;;;18.60;57.30;;;;;;5091054;28;20207;-60
2022/11/10 07:21:45;;;;;;;10.40;3.10;;;18.80;56.20;;;;;;5091445;28;20201;-60
2022/11/10 07:24:11;;;;;;;4.43;3.17;;;18.80;56.60;;;;;;5087718;28;20235;-60
2022/11/10 07:26:37;;;;;;;3.70;3.00;;;18.90;56.70;;;;;;5088041;28;20191;-60
2022/11/10 07:29:02;;;;;;;4.43;3.23;;;18.90;56.50;;;;;;5087780;28;20338;-60
2022/11/10 07:31:28;;;;;;;3.80;2.90;;;19.00;56.40;;;;;;5091709;28;20192;-60
2022/11/10 07:33:53;;;;;;;6.43;3.10;;;19.10;56.30;;;;;;5091930;28;20217;-60
2022/11/10 07:36:19;;;;;;;4.57;3.23;;;19.10;55.90;;;;;;5091066;28;20195;-61
2022/11/10 07:38:44;;;;;;;4.30;3.23;;;19.20;56.30;;;;;;5091037;28;20329;-61
2022/11/10 07:41:10;;;;;;;4.00;3.40;;;19.00;56.20;;;;;;5089626;28;21002;-60
2022/11/10 07:43:36;;;;;;;4.60;3.37;;;18.80;56.70;;;;;;5089889;28;20285;-60
2022/11/10 07:46:01;;;;;;;6.00;3.20;;;18.30;57.60;;;;;;5092730;28;20190;-61
2022/11/10 07:48:27;;;;;;;3.40;3.10;;;18.40;58.20;;;;;;5093395;28;20253;-60
2022/11/10 07:50:52;;;;;;;6.17;3.33;;;18.50;58.10;;;;;;5093014;28;20210;-60
2022/11/10 07:53:19;;;;;;;4.00;3.60;;;18.50;58.10;;;;;;5098412;28;20213;-60
2022/11/10 07:55:45;;;;;;;4.00;3.60;;;18.60;57.80;;;;;;5099084;28;20196;-61
2022/11/10 07:58:15;;;;;;;4.53;3.40;;;18.60;57.70;;;;;;5092869;28;20425;-60
2022/11/10 08:00:42;;;;;;;5.67;3.37;;;18.50;58.10;;;;;;5093465;28;20445;-60
2022/11/10 08:03:19;;;;;;;4.60;3.83;;;18.50;58.00;;;;;;5092890;28;20418;-60
2022/11/10 08:05:44;;;;;;;5.60;3.90;;;18.40;58.30;;;;;;5093652;28;20432;-60
2022/11/10 08:08:10;;;;;;;5.53;4.07;;;18.30;58.50;;;;;;5092532;28;20421;-60
2022/11/10 08:10:36;;;;;;;9.47;4.10;;;18.10;59.10;;;;;;5092780;28;20282;-60
2022/11/10 08:13:04;;;;;;;4.57;3.97;;;18.00;59.80;;;;;;5094179;28;20508;-60
2022/11/10 08:15:31;;;;;;;4.97;3.60;;;17.80;60.30;;;;;;5093005;28;20191;-60
2022/11/10 08:17:59;;;;;;;4.07;3.70;;;17.80;60.80;;;;;;5093548;28;20413;-60
2022/11/10 08:20:24;;;;;;;6.93;4.70;;;17.80;61.20;;;;;;5091027;28;20548;-60
2022/11/10 08:23:03;;;;;;;8.03;4.80;;;17.80;61.70;;;;;;5092450;28;20540;-60
2022/11/10 08:25:30;;;;;;;26.33;4.60;;;17.70;61.70;;;;;;5092798;28;20238;-60
2022/11/10 08:28:01;;;;;;;4.43;4.03;;;17.70;61.80;;;;;;5092675;28;20421;-60
2022/11/10 08:30:27;;;;;;;7.30;5.60;;;17.80;62.20;;;;;;5091459;28;20473;-60
2022/11/10 08:32:55;;;;;;;5.10;4.37;;;17.80;62.60;;;;;;5095408;28;20551;-60
2022/11/10 08:35:22;;;;;;;5.53;4.77;;;17.70;62.80;;;;;;5091654;28;20442;-60
2022/11/10 08:37:47;;;;;;;6.97;5.03;;;17.70;63.00;;;;;;5091047;28;20465;-60
2022/11/10 08:40:14;;;;;;;4.83;4.33;;;17.70;63.10;;;;;;5091134;28;21044;-60
2022/11/10 08:42:40;;;;;;;11.50;4.50;;;17.70;63.60;;;;;;5091799;28;20629;-60
2022/11/10 08:45:05;;;;;;;4.73;4.27;;;17.70;63.60;;;;;;5098316;28;20489;-60
2022/11/10 08:47:31;;;;;;;8.20;4.87;;;17.70;64.30;;;;;;5091663;28;20199;-60
2022/11/10 08:49:57;;;;;;;5.47;4.20;;;17.60;65.00;;;;;;5085578;28;20223;-60
2022/11/10 08:52:22;;;;;;;6.13;5.53;;;17.70;65.10;;;;;;5084322;28;20910;-60
2022/11/10 08:54:48;;;;;;;8.53;5.63;;;17.80;64.80;;;;;;5083928;28;20215;-60
2022/11/10 08:57:13;;;;;;;6.43;5.33;;;17.90;64.20;;;;;;5090203;28;20677;-60
2022/11/10 08:59:39;;;;;;;6.30;5.27;;;18.00;64.20;;;;;;5090066;28;20286;-60
2022/11/10 09:02:05;;;;;;;7.73;4.70;;;18.00;63.70;;;;;;5089195;28;20203;-60
2022/11/10 09:04:30;;;;;;;8.20;4.40;;;18.10;64.10;;;;;;5089451;28;20198;-60
2022/11/10 09:06:56;;;;;;;6.00;4.17;;;18.30;63.50;;;;;;5089644;28;20195;-60
2022/11/10 09:09:26;;;;;;;4.20;3.83;;;18.30;61.60;;;;;;5086285;28;20238;-60
2022/11/10 09:11:52;;;;;;;11.10;3.57;;;18.30;60.70;;;;;;5085558;28;20438;-60
2022/11/10 09:14:17;;;;;;;8.50;4.37;;;18.60;61.10;;;;;;5089888;28;20429;-60
2022/11/10 09:16:43;;;;;;;4.30;2.53;;;18.70;60.40;;;;;;5087254;28;20203;-60
2022/11/10 09:19:09;;;;;;;5.30;3.33;;;18.90;58.80;;;;;;5095888;28;20248;-60
2022/11/10 09:21:34;;;;;;;4.57;3.00;;;19.00;58.20;;;;;;5088845;28;20200;-59
2022/11/10 09:24:00;;;;;;;5.63;2.27;;;19.20;57.30;;;;;;5089637;28;20253;-59
2022/11/10 09:26:26;;;;;;;4.60;2.70;;;19.40;57.30;;;;;;5088758;28;20206;-59
2022/11/10 09:28:51;;;;;;;5.83;2.37;;;19.60;57.00;;;;;;5087761;28;20238;-59
2022/11/10 09:31:17;;;;;;;7.17;2.67;;;19.80;56.80;;;;;;5089265;28;20187;-59
2022/11/10 09:33:43;;;;;;;4.20;2.83;;;19.90;55.80;;;;;;5090942;28;20195;-59
2022/11/10 09:36:08;;;;;;;4.30;2.53;;;19.70;54.70;;;;;;5089338;28;20197;-59
2022/11/10 09:38:34;;;;;;;3.50;2.53;;;19.70;55.50;;;;;;5086938;28;20187;-59
2022/11/10 09:41:01;;;;;;;5.97;2.90;;;19.80;56.10;;;;;;5090350;28;20184;-59
2022/11/10 09:44:02;;;;;;;7.73;2.80;;;20.00;56.00;;;;;;5085129;28;20198;-59
2022/11/10 09:46:35;;;;;;;6.50;2.80;;;20.20;55.60;;;;;;5090878;28;20441;-59
2022/11/10 09:49:30;;;;;;;4.03;2.63;;;20.30;55.30;;;;;;5087560;28;20569;-59
2022/11/10 09:51:57;;;;;;;5.27;3.30;;;20.30;55.20;;;;;;5077330;28;20463;-59
2022/11/10 09:54:41;;;;;;;5.20;2.90;;;20.30;55.80;;;;;;5084065;28;20964;-59
2022/11/10 09:57:12;;;;;;;4.70;2.60;;;20.50;55.20;;;;;;5085811;28;20445;-59
2022/11/10 09:59:38;;;;;;;5.30;3.10;;;20.70;55.50;;;;;;5088037;28;20456;-60
2022/11/10 10:02:29;;;;;;;3.97;2.20;;;20.90;54.70;;;;;;5090163;28;20444;-59
2022/11/10 10:05:24;;;;;;;3.67;1.70;;;21.20;51.90;;;;;;5084688;28;20930;-59
2022/11/10 10:08:10;;;;;;;3.50;2.20;;;21.20;51.40;;;;;;5085384;28;20438;-59
2022/11/10 10:10:54;;;;;;;3.03;2.60;;;21.30;52.60;;;;;;5089578;28;20456;-59
2022/11/10 10:13:41;;;;;;;3.27;2.50;;;21.40;52.60;;;;;;5082654;28;20440;-60
2022/11/10 10:16:14;;;;;;;5.33;2.30;;;21.50;51.10;;;;;;5085446;28;20494;-60
2022/11/10 10:19:01;;;;;;;3.30;2.00;;;21.60;51.00;;;;;;5089129;28;20471;-60
2022/11/10 10:22:05;;;;;;;7.87;2.70;;;21.70;51.00;;;;;;5074513;28;20433;-60
2022/11/10 10:24:32;;;;;;;2.80;2.20;;;21.90;51.00;;;;;;5088848;28;20967;-60
2022/11/10 10:27:01;;;;;;;4.43;2.20;;;22.00;51.50;;;;;;5087242;28;20445;-60
2022/11/10 10:29:34;;;;;;;3.43;1.47;;;22.10;50.90;;;;;;5087172;28;20851;-60
2022/11/10 10:32:00;;;;;;;5.67;1.93;;;22.00;47.70;;;;;;5086886;28;20438;-60
2022/11/10 10:34:30;;;;;;;4.97;1.60;;;22.00;46.00;;;;;;5087766;28;20441;-60
2022/11/10 10:36:56;;;;;;;1.97;1.00;;;22.00;45.80;;;;;;5085301;28;20537;-60
2022/11/10 10:39:29;;;;;;;4.47;1.30;;;22.00;46.90;;;;;;5084815;28;20514;-60
2022/11/10 10:41:55;;;;;;;5.23;1.23;;;22.10;46.90;;;;;;5089886;28;20187;-60
2022/11/10 10:44:21;;;;;;;2.40;1.43;;;22.20;46.00;;;;;;5087185;28;20468;-60
2022/11/10 10:46:54;;;;;;;2.10;1.47;;;22.20;45.80;;;;;;5088699;28;20437;-62
2022/11/10 10:49:28;;;;;;;3.77;1.47;;;22.20;46.50;;;;;;5090242;28;20229;-60
2022/11/10 10:52:15;;;;;;;4.03;1.30;;;22.30;45.30;;;;;;5090278;28;20440;-60
2022/11/10 10:54:41;;;;;;;4.17;2.10;;;22.50;47.50;;;;;;5079335;28;20528;-60
2022/11/10 10:57:27;;;;;;;2.53;1.50;;;22.60;47.10;;;;;;5087619;28;21027;-60
2022/11/10 11:00:18;;;;;;;4.53;1.33;;;22.80;46.80;;;;;;5090050;28;20199;-60
2022/11/10 11:03:04;;;;;;;3.40;1.50;;;22.90;46.50;;;;;;5086297;28;20450;-60
2022/11/10 11:05:29;;;;;;;3.47;2.13;;;22.70;46.10;;;;;;5094118;28;20536;-60
2022/11/10 11:07:59;;;;;;;2.87;1.60;;;22.50;46.50;;;;;;5087419;28;20999;-60
2022/11/10 11:10:34;;;;;;;3.27;1.73;;;22.40;47.60;;;;;;5089271;28;20219;-60
2022/11/10 11:13:24;;;;;;;5.63;1.70;;;22.30;47.10;;;;;;5086989;28;20450;-60
2022/11/10 11:16:00;;;;;;;3.90;1.60;;;22.20;47.20;;;;;;5087269;28;20433;-60
2022/11/10 11:18:28;;;;;;;2.00;1.50;;;22.10;47.40;;;;;;5085395;28;20540;-60
2022/11/10 11:21:23;;;;;;;2.97;1.50;;;22.00;46.70;;;;;;5088151;28;20457;-58
2022/11/10 11:24:09;;;;;;;4.00;2.13;;;21.90;47.50;;;;;;5082210;28;20477;-58
2022/11/10 11:27:01;;;;;;;4.10;2.30;;;21.90;48.20;;;;;;5095736;28;20812;-59
2022/11/10 11:29:30;;;;;;;2.73;1.67;;;22.00;48.40;;;;;;5087158;28;20524;-59
2022/11/10 11:32:30;;;;;;;2.93;1.50;;;22.00;48.40;;;;;;5093260;28;20437;-59
2022/11/10 11:35:20;;;;;;;2.20;1.50;;;22.10;47.20;;;;;;5090540;28;20813;-59
2022/11/10 11:38:09;;;;;;;3.20;1.60;;;21.90;45.60;;;;;;5090564;28;20494;-58
2022/11/10 11:40:45;;;;;;;4.57;1.53;;;22.00;45.80;;;;;;5090417;28;20442;-58
2022/11/10 11:43:38;;;;;;;3.37;1.53;;;22.10;46.90;;;;;;5092229;28;20768;-59
2022/11/10 11:46:16;;;;;;;3.00;1.57;;;22.20;47.10;;;;;;5093310;28;20445;-59
2022/11/10 11:49:03;;;;;;;2.83;1.27;;;22.20;45.50;;;;;;5092067;28;20571;-59
2022/11/10 11:51:37;;;;;;;3.00;1.37;;;22.30;44.90;;;;;;5089728;28;20803;-58
2022/11/10 11:54:06;;;;;;;3.60;1.50;;;22.30;44.90;;;;;;5090027;28;20480;-59
2022/11/10 11:56:41;;;;;;;3.83;1.67;;;22.20;45.70;;;;;;5094617;28;20432;-59
2022/11/10 11:59:45;;;;;;;1.43;1.27;;;22.20;45.20;;;;;;5088242;28;20444;-59
2022/11/10 12:02:23;;;;;;;1.73;1.20;;;22.30;45.10;;;;;;5091972;28;20977;-59
2022/11/10 12:04:54;;;;;;;5.20;2.13;;;22.30;45.40;;;;;;5089789;28;20443;-59
2022/11/10 12:08:00;;;;;;;3.07;1.40;;;22.40;46.20;;;;;;5081854;28;20432;-59
2022/11/10 12:11:04;;;;;;;3.40;1.50;;;22.40;44.60;;;;;;5093144;28;20492;-59
2022/11/10 12:13:37;;;;;;;4.63;1.60;;;22.30;45.40;;;;;;5086900;28;20999;-59
2022/11/10 12:16:28;;;;;;;3.33;1.40;;;22.20;45.40;;;;;;5092986;28;20433;-58
2022/11/10 12:19:18;;;;;;;2.83;1.40;;;22.20;46.50;;;;;;5090550;28;20449;-58
2022/11/10 12:22:16;;;;;;;3.80;1.90;;;22.20;47.00;;;;;;5088393;28;20453;-58
2022/11/10 12:24:46;;;;;;;3.33;1.77;;;22.10;47.00;;;;;;5074928;28;20992;-59
2022/11/10 12:27:18;;;;;;;3.73;1.40;;;22.00;47.10;;;;;;5092274;28;20445;-60
2022/11/10 12:29:54;;;;;;;2.47;1.40;;;21.90;47.50;;;;;;5091104;28;20525;-59
2022/11/10 12:32:41;;;;;;;3.90;1.47;;;21.90;47.50;;;;;;5089663;28;20455;-59
2022/11/10 12:35:22;;;;;;;5.27;1.70;;;21.90;47.60;;;;;;5086602;28;20478;-59
2022/11/10 12:38:12;;;;;;;2.60;1.30;;;21.90;47.80;;;;;;5091186;28;20459;-59
2022/11/10 12:40:48;;;;;;;3.03;1.67;;;21.80;47.30;;;;;;5092347;28;20445;-59
2022/11/10 12:43:28;;;;;;;3.27;1.60;;;21.60;47.60;;;;;;5091721;28;20948;-59
2022/11/10 12:45:58;;;;;;;4.93;1.43;;;21.60;48.40;;;;;;5089485;28;20951;-59
2022/11/10 12:48:29;;;;;;;6.73;1.83;;;21.60;47.90;;;;;;5085761;28;20799;-59
2022/11/10 12:51:08;;;;;;;1.77;1.00;;;21.60;47.90;;;;;;5098990;28;20579;-59
2022/11/10 12:53:39;;;;;;;6.57;1.70;;;21.40;47.00;;;;;;5090374;28;20450;-59
2022/11/10 12:56:29;;;;;;;8.77;1.33;;;21.20;47.30;;;;;;5090403;28;20453;-59
2022/11/10 12:59:19;;;;;;;3.53;1.30;;;21.40;46.70;;;;;;5083886;28;21067;-59
2022/11/10 13:01:51;;;;;;;3.70;1.50;;;21.60;46.70;;;;;;5086310;28;20448;-59
2022/11/10 13:04:19;;;;;;;2.53;1.50;;;21.70;47.10;;;;;;5089096;28;20441;-60
2022/11/10 13:07:04;;;;;;;2.43;1.27;;;21.70;45.90;;;;;;5092129;28;20449;-60
2022/11/10 13:09:36;;;;;;;4.40;1.57;;;21.90;46.50;;;;;;5087625;28;20537;-60
2022/11/10 13:12:17;;;;;;;3.30;1.13;;;21.90;46.30;;;;;;5101404;28;20446;-60